Airport View

Enter AWOS ICAO identifier for current METAR.

ex. KFNL

KGPC 290255Z AUTO 26004KT 10SM SCT047 SCT060 OVC075 13/09 A2990 RMK AO2 T01300091

29 Sep 2020 03:14

Frequency: 118.125

Phone: 765-653-1789

Other Area AWOS: KCFJ - KIND - KHUF - KEYE

TAF AMD KIND 290204Z 2902/3006 25007KT P6SM SKC FM290800 26005KT P6SM FEW190